Humidity-temperature Sensor

Selected Measurement Type: Relative Humidity

 
Relative Humidity [%]     6 entries per hour
Showing data from 3/18/2020 (23:50:00 Z) to 3/17/2020 (00:00:00 Z)
Previous Next [ Day | 3-Days | 7-Days ]
First Last
Prev [ Day | 3-Days | 7-Days ] Next
First Last

Start Time:     :
End Time:     :     
Time (in GMT) :00 :50 :40 :30 :20 :10
Previous Next [ Day | 3-Days | 7-Days ]
First Last
Prev [ Day | 3-Days | 7-Days ] Next
First Last


123 => good data
MM => data is determined as missing
-- => data not received/configured
Back to Top Back to Top
3/19/2020 00:00 to 23:10 -- 79.17 79.09 81.08 87.02 82.93
3/18/2020 23:00 to 22:10 79.89 79.07 78.04 78.26 80.34 80.13
3/18/2020 22:00 to 21:10 81.65 81.84 82.33 82.83 82.72 82.27
3/18/2020 21:00 to 20:10 82.62 81.30 81.51 80.96 81.98 82.54
3/18/2020 20:00 to 19:10 83.38 83.07 82.72 81.94 82.80 82.76
3/18/2020 19:00 to 18:10 82.68 82.83 83.03 83.32 82.83 82.04
3/18/2020 18:00 to 17:10 81.26 81.04 80.85 79.50 79.13 79.23
3/18/2020 17:00 to 16:10 79.91 81.55 81.41 80.96 81.26 82.02
3/18/2020 16:00 to 15:10 81.43 83.77 84.45 85.04 85.52 86.34
3/18/2020 15:00 to 14:10 85.37 85.43 84.76 85.19 85.72 87.30
3/18/2020 14:00 to 13:10 87.88 86.75 87.53 88.37 88.19 86.17
3/18/2020 13:00 to 12:10 85.35 85.25 85.06 84.74 84.10 84.39
3/18/2020 12:00 to 11:10 83.15 82.68 82.41 80.44 83.22 86.65
3/18/2020 11:00 to 10:10 86.81 84.12 84.49 84.45 86.26 84.90
3/18/2020 10:00 to 9:10 84.08 84.00 83.28 83.19 83.30 84.45
3/18/2020 09:00 to 8:10 85.91 85.27 84.28 84.90 82.91 81.70
3/18/2020 08:00 to 7:10 84.18 81.35 82.23 82.13 83.15 82.37
3/18/2020 07:00 to 6:10 81.59 82.50 83.56 83.65 85.35 84.59
3/18/2020 06:00 to 5:10 83.44 82.19 82.15 83.34 81.94 82.39
3/18/2020 05:00 to 4:10 81.59 81.39 81.98 82.09 82.46 82.64
3/18/2020 04:00 to 3:10 83.67 85.91 87.47 86.89 87.04 86.54
3/18/2020 03:00 to 2:10 86.58 84.63 84.02 83.59 84.14 83.87
3/18/2020 02:00 to 1:10 84.14 82.31 81.86 82.06 82.31 82.41
3/18/2020 01:00 to 0:10 80.40 80.94 80.71 80.85 81.82 82.25
3/18/2020 00:00 to 23:10 83.24 82.85 83.59 85.02 84.63 84.63
3/17/2020 23:00 to 22:10 85.31 86.63 87.04 85.93 85.13 83.59
3/17/2020 22:00 to 21:10 83.11 82.06 82.23 83.09 83.42 83.56
3/17/2020 21:00 to 20:10 84.72 87.30 86.58 86.11 85.93 86.54
3/17/2020 20:00 to 19:10 86.56 85.87 85.13 85.02 83.46 83.15
3/17/2020 19:00 to 18:10 83.52 83.05 82.58 82.70 83.22 83.59
3/17/2020 18:00 to 17:10 85.64 86.60 88.39 87.96 89.52 89.71
3/17/2020 17:00 to 16:10 90.61 91.04 90.86 91.23 91.76 91.54
3/17/2020 16:00 to 15:10 91.64 91.21 89.79 87.94 82.04 82.83
3/17/2020 15:00 to 14:10 82.00 81.35 81.90 82.70 82.52 83.03
3/17/2020 14:00 to 13:10 82.19 83.05 82.99 83.54 84.02 83.98
3/17/2020 13:00 to 12:10 83.63 88.99 88.10 86.50 83.95 83.69
3/17/2020 12:00 to 11:10 83.05 83.81 84.55 83.87 83.71 83.13
3/17/2020 11:00 to 10:10 83.32 82.35 83.46 83.13 82.15 81.96
3/17/2020 10:00 to 9:10 82.25 82.52 82.27 83.26 82.58 82.97
3/17/2020 09:00 to 8:10 82.80 81.59 80.96 82.70 83.40 84.76
3/17/2020 08:00 to 7:10 84.35 83.67 84.14 81.65 81.30 80.69
3/17/2020 07:00 to 6:10 80.42 81.57 80.98 81.76 80.75 80.26
3/17/2020 06:00 to 5:10 79.76 81.10 81.74 81.00 81.96 81.14
3/17/2020 05:00 to 4:10 80.79 81.26 81.70 81.22 81.74 82.41
3/17/2020 04:00 to 3:10 82.27 81.84 81.49 80.69 80.15 79.21
3/17/2020 03:00 to 2:10 78.90 77.92 77.09 78.57 77.46 77.89
3/17/2020 02:00 to 1:10 79.07 78.14 78.70 78.24 78.53 77.77
3/17/2020 01:00 to 0:10 77.52 76.97 76.23 76.91 77.18 76.83